createdAt,value
2018-12-14T00:00:19.323Z,27.32
2018-12-14T00:01:30.061Z,33.05
2018-12-14T00:02:36.103Z,30.88
2018-12-14T00:03:43.305Z,29.10
2018-12-14T00:04:49.374Z,29.32
2018-12-14T00:05:55.466Z,27.45
2018-12-14T00:07:00.936Z,29.07
2018-12-14T00:08:05.164Z,29.80
2018-12-14T00:09:09.334Z,31.15
2018-12-14T00:10:15.600Z,30.35
2018-12-14T00:11:20.224Z,34.65
2018-12-14T00:12:24.374Z,35.20
2018-12-14T00:13:28.553Z,31.57
2018-12-14T00:14:33.580Z,31.65
2018-12-14T00:15:37.815Z,32.55
2018-12-14T00:16:41.944Z,33.83
2018-12-14T00:17:46.168Z,34.83
2018-12-14T00:18:50.291Z,30.77
2018-12-14T00:19:54.397Z,33.25
2018-12-14T00:20:58.471Z,36.20
2018-12-14T00:22:03.093Z,32.15
2018-12-14T00:23:07.297Z,34.75
2018-12-14T00:24:11.398Z,33.75
2018-12-14T00:25:15.463Z,34.70
2018-12-14T00:26:19.574Z,33.13
2018-12-14T00:27:23.956Z,34.80
2018-12-14T00:28:28.142Z,34.73
2018-12-14T00:29:32.242Z,34.33
2018-12-14T00:30:36.384Z,37.93
2018-12-14T00:31:40.585Z,33.65
2018-12-14T00:32:44.692Z,34.90
2018-12-14T00:33:48.869Z,38.10
2018-12-14T00:34:53.104Z,32.35
2018-12-14T00:35:57.208Z,33.40
2018-12-14T00:37:01.378Z,33.78
2018-12-14T00:38:05.610Z,34.33
2018-12-14T00:39:09.786Z,35.88
2018-12-14T00:40:14.030Z,35.15
2018-12-14T00:41:18.149Z,34.78
2018-12-14T00:42:45.116Z,32.23
2018-12-14T00:43:49.230Z,36.65
2018-12-14T00:44:53.373Z,32.80
2018-12-14T00:45:57.547Z,33.98
2018-12-14T00:47:01.757Z,31.52
2018-12-14T00:48:05.858Z,34.48
2018-12-14T00:49:09.963Z,35.23
2018-12-14T00:50:14.121Z,34.65
2018-12-14T00:51:18.378Z,35.45
2018-12-14T00:52:22.514Z,36.53
2018-12-14T00:53:26.651Z,32.30
2018-12-14T00:54:30.761Z,35.60
2018-12-14T00:55:34.853Z,35.88
2018-12-14T00:56:39.005Z,36.17
2018-12-14T00:57:43.147Z,36.10
2018-12-14T00:58:47.271Z,35.90
2018-12-14T00:59:51.496Z,35.65
2018-12-14T01:00:55.676Z,34.55
2018-12-14T01:02:00.112Z,36.98
2018-12-14T01:03:04.393Z,37.35
2018-12-14T01:04:08.527Z,38.73
2018-12-14T01:05:12.874Z,36.68
2018-12-14T01:06:17.112Z,37.93
2018-12-14T01:07:21.272Z,35.35
2018-12-14T01:08:25.499Z,34.03
2018-12-14T01:09:29.719Z,35.00
2018-12-14T01:10:33.997Z,37.08
2018-12-14T01:11:40.407Z,32.10
2018-12-14T01:12:44.557Z,37.33
2018-12-14T01:13:48.687Z,34.00
2018-12-14T01:14:52.952Z,36.55
2018-12-14T01:15:57.043Z,35.38
2018-12-14T01:17:01.336Z,33.73
2018-12-14T01:18:05.486Z,33.73
2018-12-14T01:19:09.727Z,36.38
2018-12-14T01:20:13.953Z,35.52
2018-12-14T01:21:18.456Z,38.90
2018-12-14T01:22:22.563Z,38.20
2018-12-14T01:23:26.717Z,36.95
2018-12-14T01:24:30.879Z,36.05
2018-12-14T01:25:35.042Z,36.80
2018-12-14T01:26:39.151Z,37.98
2018-12-14T01:27:43.355Z,37.40
2018-12-14T01:28:47.495Z,38.38
2018-12-14T01:29:51.632Z,38.70
2018-12-14T01:30:55.761Z,34.90
2018-12-14T01:31:59.840Z,33.42
2018-12-14T01:33:04.088Z,36.70
2018-12-14T01:34:23.204Z,36.65
2018-12-14T01:35:27.488Z,38.73
2018-12-14T01:36:31.720Z,39.13
2018-12-14T01:37:35.835Z,38.00
2018-12-14T01:38:39.977Z,32.55
2018-12-14T01:39:44.115Z,36.90
2018-12-14T01:40:48.342Z,39.15
2018-12-14T01:41:52.484Z,38.13
2018-12-14T01:42:56.579Z,36.38
2018-12-14T01:44:00.765Z,37.08
2018-12-14T01:45:05.561Z,36.03
2018-12-14T01:46:09.643Z,36.65
2018-12-14T01:47:13.927Z,38.63
2018-12-14T01:48:18.018Z,37.85
2018-12-14T01:49:22.129Z,32.08
2018-12-14T01:50:26.210Z,40.43
2018-12-14T01:51:30.409Z,38.65
2018-12-14T01:52:34.699Z,34.65
2018-12-14T01:53:38.832Z,38.28
2018-12-14T01:54:44.020Z,38.17
2018-12-14T01:55:48.151Z,38.73
2018-12-14T01:56:52.281Z,35.55
2018-12-14T01:57:56.386Z,39.18
2018-12-14T01:59:00.473Z,39.92
2018-12-14T02:00:05.141Z,38.28
2018-12-14T02:01:09.284Z,36.23
2018-12-14T02:02:14.368Z,37.60
2018-12-14T02:03:18.575Z,39.00
2018-12-14T02:04:22.773Z,36.48
2018-12-14T02:05:26.814Z,39.65
2018-12-14T02:06:30.961Z,35.33
2018-12-14T02:07:35.085Z,37.83
2018-12-14T02:08:39.168Z,42.08
2018-12-14T02:09:43.269Z,37.85
2018-12-14T02:10:47.433Z,40.03
2018-12-14T02:11:51.487Z,37.60
2018-12-14T02:12:55.666Z,37.23
2018-12-14T02:13:59.774Z,39.27
2018-12-14T02:15:04.110Z,38.88
2018-12-14T02:16:08.239Z,37.28
2018-12-14T02:17:12.347Z,41.28
2018-12-14T02:18:16.422Z,38.92
2018-12-14T02:19:20.519Z,38.98
2018-12-14T02:20:24.725Z,40.90
2018-12-14T02:21:28.821Z,38.17
2018-12-14T02:22:33.543Z,38.50
2018-12-14T02:23:37.624Z,36.28
2018-12-14T02:24:41.707Z,37.35
2018-12-14T02:25:45.779Z,36.88
2018-12-14T02:26:49.885Z,39.65
2018-12-14T02:27:53.977Z,39.58
2018-12-14T02:28:58.161Z,39.75
2018-12-14T02:30:12.374Z,39.67
2018-12-14T02:31:16.735Z,41.77
2018-12-14T02:32:20.855Z,39.48
2018-12-14T02:33:24.975Z,42.30
2018-12-14T02:34:29.195Z,39.98
2018-12-14T02:35:33.398Z,43.02
2018-12-14T02:36:37.637Z,39.53
2018-12-14T02:37:41.843Z,39.83
2018-12-14T02:38:45.956Z,39.78
2018-12-14T02:39:50.115Z,41.68
2018-12-14T02:40:54.458Z,39.65
2018-12-14T02:41:58.689Z,43.75
2018-12-14T02:43:02.968Z,46.05
2018-12-14T02:44:07.076Z,39.67
2018-12-14T02:45:11.370Z,44.48
2018-12-14T02:46:15.483Z,42.35
2018-12-14T02:47:19.587Z,41.37
2018-12-14T02:48:23.767Z,41.50
2018-12-14T02:49:27.891Z,43.65
2018-12-14T02:50:32.106Z,40.10
2018-12-14T02:51:36.281Z,41.60
2018-12-14T02:52:40.447Z,37.60
2018-12-14T02:53:44.549Z,43.20
2018-12-14T02:54:48.654Z,40.03
2018-12-14T02:55:52.715Z,40.98
2018-12-14T02:56:56.858Z,37.42
2018-12-14T02:58:01.029Z,41.10
2018-12-14T02:59:05.142Z,40.03
2018-12-14T03:00:09.399Z,43.50
2018-12-14T03:01:15.483Z,40.88
2018-12-14T03:02:19.727Z,39.20
2018-12-14T03:03:23.818Z,43.80
2018-12-14T03:04:27.932Z,41.80
2018-12-14T03:05:32.014Z,44.20
2018-12-14T03:06:36.103Z,39.38
2018-12-14T03:07:40.344Z,42.27
2018-12-14T03:08:44.512Z,40.35
2018-12-14T03:09:48.717Z,41.42
2018-12-14T03:10:52.842Z,42.35
2018-12-14T03:11:56.959Z,42.38
2018-12-14T03:13:01.042Z,38.75
2018-12-14T03:14:05.226Z,39.80
2018-12-14T03:15:09.541Z,40.58
2018-12-14T03:16:13.644Z,42.15
2018-12-14T03:17:17.750Z,42.03
2018-12-14T03:18:21.893Z,44.03
2018-12-14T03:19:26.046Z,43.10
2018-12-14T03:20:30.182Z,41.00
2018-12-14T03:21:34.267Z,40.78
2018-12-14T03:22:38.477Z,42.17
2018-12-14T03:23:42.533Z,43.15
2018-12-14T03:24:46.790Z,45.03
2018-12-14T03:25:51.083Z,43.78
2018-12-14T03:26:55.185Z,41.37
2018-12-14T03:27:59.276Z,43.50
2018-12-14T03:29:03.403Z,40.60
2018-12-14T03:30:09.033Z,43.90
2018-12-14T03:31:13.241Z,42.35
2018-12-14T03:32:17.345Z,45.03
2018-12-14T03:33:21.416Z,43.78
2018-12-14T03:34:25.636Z,44.80
2018-12-14T03:35:29.806Z,39.78
2018-12-14T03:36:33.956Z,42.73
2018-12-14T03:37:38.046Z,44.60
2018-12-14T03:38:42.276Z,43.80
2018-12-14T03:39:46.326Z,41.13
2018-12-14T03:40:50.486Z,43.45
2018-12-14T03:41:54.812Z,41.33
2018-12-14T03:42:58.917Z,46.02
2018-12-14T03:44:02.989Z,43.60
2018-12-14T03:45:07.325Z,41.65
2018-12-14T03:46:11.421Z,43.28
2018-12-14T03:47:15.563Z,42.55
2018-12-14T03:48:19.617Z,44.53
2018-12-14T03:49:23.812Z,41.95
2018-12-14T03:50:27.921Z,42.50
2018-12-14T03:51:32.120Z,42.23
2018-12-14T03:52:36.305Z,40.15
2018-12-14T03:53:40.373Z,43.10
2018-12-14T03:54:44.456Z,40.80
2018-12-14T03:55:48.633Z,42.33
2018-12-14T03:56:52.733Z,41.90
2018-12-14T03:57:57.120Z,42.62
2018-12-14T03:59:01.203Z,42.30
2018-12-14T04:00:07.150Z,42.53
2018-12-14T04:01:11.401Z,39.25
2018-12-14T04:02:15.565Z,40.58
2018-12-14T04:03:19.737Z,42.70
2018-12-14T04:04:23.865Z,43.70
2018-12-14T04:05:28.295Z,39.70
2018-12-14T04:06:32.426Z,44.98
2018-12-14T04:07:38.559Z,40.63
2018-12-14T04:08:42.759Z,43.30
2018-12-14T04:09:46.940Z,42.95
2018-12-14T04:10:51.029Z,43.40
2018-12-14T04:11:55.120Z,43.95
2018-12-14T04:12:59.217Z,40.75
2018-12-14T04:14:03.341Z,42.75
2018-12-14T04:15:07.707Z,41.23
2018-12-14T04:16:11.826Z,42.27
2018-12-14T04:17:15.940Z,42.35
2018-12-14T04:18:20.272Z,40.45
2018-12-14T04:19:24.380Z,44.53
2018-12-14T04:20:29.658Z,46.05
2018-12-14T04:21:33.892Z,44.03
2018-12-14T04:22:38.051Z,41.90
2018-12-14T04:23:42.296Z,44.27
2018-12-14T04:24:46.550Z,40.92
2018-12-14T04:25:50.670Z,43.35
2018-12-14T04:26:54.870Z,42.67
2018-12-14T04:27:58.985Z,45.15
2018-12-14T04:29:03.305Z,41.77
2018-12-14T04:30:08.252Z,40.43
2018-12-14T04:31:12.460Z,43.68
2018-12-14T04:32:16.620Z,43.33
2018-12-14T04:33:20.814Z,43.90
2018-12-14T04:34:25.987Z,42.65
2018-12-14T04:35:30.169Z,45.28
2018-12-14T04:36:36.326Z,45.12
2018-12-14T04:37:42.577Z,43.75
2018-12-14T04:38:46.684Z,43.33
2018-12-14T04:39:50.919Z,40.83
2018-12-14T04:40:55.008Z,41.85
2018-12-14T04:41:59.173Z,41.85
2018-12-14T04:43:03.314Z,46.68
2018-12-14T04:44:07.439Z,44.38
2018-12-14T04:45:11.705Z,43.58
2018-12-14T04:46:15.812Z,38.63
2018-12-14T04:47:20.002Z,43.75
2018-12-14T04:48:24.135Z,43.87
2018-12-14T04:49:28.508Z,41.83
2018-12-14T04:50:32.656Z,44.20
2018-12-14T04:51:44.073Z,43.05
2018-12-14T04:52:48.101Z,44.58
2018-12-14T04:53:52.142Z,46.98
2018-12-14T04:54:56.184Z,41.73
2018-12-14T04:56:00.240Z,46.53
2018-12-14T04:57:04.353Z,39.27
2018-12-14T04:58:08.489Z,42.88
2018-12-14T04:59:12.522Z,43.68
2018-12-14T05:00:16.572Z,42.38
2018-12-14T05:01:20.860Z,42.80
2018-12-14T05:02:24.936Z,42.45
2018-12-14T05:03:28.957Z,43.00
2018-12-14T05:04:33.063Z,43.00
2018-12-14T05:05:37.179Z,44.08
2018-12-14T05:06:41.218Z,45.23
2018-12-14T05:07:45.275Z,43.40
2018-12-14T05:08:49.347Z,44.00
2018-12-14T05:09:53.400Z,43.05
2018-12-14T05:10:57.488Z,48.05
2018-12-14T05:12:01.559Z,46.02
2018-12-14T05:13:06.318Z,42.95
2018-12-14T05:14:10.363Z,46.33
2018-12-14T05:15:14.474Z,40.80
2018-12-14T05:16:18.479Z,37.73
2018-12-14T05:17:22.517Z,40.52
2018-12-14T05:18:26.625Z,39.78
2018-12-14T05:19:30.627Z,42.75
2018-12-14T05:20:34.731Z,44.13
2018-12-14T05:21:38.923Z,47.90
2018-12-14T05:22:43.070Z,40.45
2018-12-14T05:23:47.217Z,47.38
2018-12-14T05:24:51.252Z,42.58
2018-12-14T05:25:55.300Z,45.92
2018-12-14T05:26:59.370Z,39.38
2018-12-14T05:28:03.584Z,41.35
2018-12-14T05:29:07.663Z,45.78
2018-12-14T05:30:11.939Z,41.95
2018-12-14T05:31:15.982Z,43.08
2018-12-14T05:32:20.058Z,42.95
2018-12-14T05:33:24.100Z,41.10
2018-12-14T05:34:28.286Z,39.50
2018-12-14T05:35:32.330Z,41.80
2018-12-14T05:36:36.440Z,43.75
2018-12-14T05:37:40.627Z,42.50
2018-12-14T05:38:45.735Z,45.70
2018-12-14T05:39:49.912Z,42.25
2018-12-14T05:40:53.974Z,43.98
2018-12-14T05:41:58.053Z,44.88
2018-12-14T05:43:02.652Z,43.30
2018-12-14T05:44:06.966Z,43.35
2018-12-14T05:45:11.035Z,41.60
2018-12-14T05:46:15.177Z,42.27
2018-12-14T05:47:19.354Z,42.50
2018-12-14T05:48:23.410Z,44.45
2018-12-14T05:49:27.535Z,45.35
2018-12-14T05:50:33.755Z,42.50
2018-12-14T05:51:38.216Z,43.15
2018-12-14T05:52:42.379Z,37.13
2018-12-14T05:53:46.449Z,41.55
2018-12-14T05:54:50.549Z,40.35
2018-12-14T05:55:54.646Z,42.88
2018-12-14T05:56:58.735Z,41.42
2018-12-14T05:58:02.852Z,43.08
2018-12-14T05:59:07.002Z,43.95
2018-12-14T06:00:12.277Z,42.05
2018-12-14T06:01:16.759Z,40.67
2018-12-14T06:02:20.869Z,44.27
2018-12-14T06:03:25.296Z,42.70
2018-12-14T06:04:29.397Z,41.75
2018-12-14T06:05:33.541Z,43.20
2018-12-14T06:06:37.926Z,44.90
2018-12-14T06:07:42.000Z,45.28
2018-12-14T06:08:46.173Z,41.02
2018-12-14T06:09:50.281Z,46.98
2018-12-14T06:10:54.649Z,45.12
2018-12-14T06:11:59.958Z,42.70
2018-12-14T06:13:09.008Z,42.40
2018-12-14T06:14:10.103Z,40.55
2018-12-14T06:15:14.394Z,43.83
2018-12-14T06:16:18.479Z,43.30
2018-12-14T06:17:22.546Z,41.35
2018-12-14T06:18:26.606Z,43.68
2018-12-14T06:19:30.675Z,42.27
2018-12-14T06:20:34.753Z,41.15
2018-12-14T06:21:38.868Z,39.92
2018-12-14T06:22:42.977Z,43.33
2018-12-14T06:23:47.030Z,44.00
2018-12-14T06:24:51.099Z,43.02
2018-12-14T06:25:55.200Z,42.75
2018-12-14T06:26:59.398Z,44.35
2018-12-14T06:28:03.565Z,44.80
2018-12-14T06:29:07.675Z,47.35
2018-12-14T06:30:11.729Z,44.38
2018-12-14T06:31:15.840Z,47.08
2018-12-14T06:32:20.027Z,43.60
2018-12-14T06:33:24.086Z,44.80
2018-12-14T06:34:28.427Z,43.23
2018-12-14T06:35:32.484Z,42.67
2018-12-14T06:36:36.974Z,47.23
2018-12-14T06:37:41.021Z,47.23
2018-12-14T06:38:45.173Z,44.25
2018-12-14T06:39:49.267Z,43.23
2018-12-14T06:40:53.260Z,43.98
2018-12-14T06:41:57.715Z,44.53
2018-12-14T06:43:01.792Z,46.18
2018-12-14T06:44:05.803Z,44.53
2018-12-14T06:45:10.285Z,46.15
2018-12-14T06:46:14.343Z,44.25
2018-12-14T06:47:18.489Z,45.50
2018-12-14T06:48:22.496Z,43.15
2018-12-14T06:49:26.491Z,42.80
2018-12-14T06:50:31.652Z,46.45
2018-12-14T06:51:35.735Z,44.33
2018-12-14T06:52:39.758Z,42.90
2018-12-14T06:53:43.844Z,44.03
2018-12-14T06:54:47.871Z,38.73
2018-12-14T06:55:51.895Z,49.60
2018-12-14T06:56:56.087Z,41.83
2018-12-14T06:58:00.296Z,44.88
2018-12-14T06:59:04.439Z,44.10
2018-12-14T07:00:09.083Z,47.43
2018-12-14T07:01:13.206Z,38.15
2018-12-14T07:02:17.389Z,43.98
2018-12-14T07:03:21.525Z,42.38
2018-12-14T07:04:25.658Z,45.75
2018-12-14T07:05:29.764Z,43.38
2018-12-14T07:06:33.786Z,42.27
2018-12-14T07:07:37.805Z,40.60
2018-12-14T07:08:41.815Z,42.45
2018-12-14T07:09:45.972Z,46.50
2018-12-14T07:10:50.263Z,45.28
2018-12-14T07:11:54.374Z,44.18
2018-12-14T07:12:58.439Z,44.80
2018-12-14T07:14:03.648Z,45.20
2018-12-14T07:15:08.113Z,47.53
2018-12-14T07:16:12.310Z,41.25
2018-12-14T07:17:16.433Z,40.15
2018-12-14T07:18:20.551Z,45.10
2018-12-14T07:19:24.604Z,46.25
2018-12-14T07:20:28.835Z,48.38
2018-12-14T07:21:32.901Z,46.77
2018-12-14T07:22:36.977Z,46.25
2018-12-14T07:23:41.031Z,42.15
2018-12-14T07:24:45.080Z,49.90
2018-12-14T07:25:49.233Z,47.90
2018-12-14T07:26:53.407Z,46.18
2018-12-14T07:27:57.523Z,44.75
2018-12-14T07:29:02.046Z,48.48
2018-12-14T07:30:06.365Z,48.05
2018-12-14T07:31:10.495Z,45.08
2018-12-14T07:32:14.494Z,50.38
2018-12-14T07:33:18.577Z,50.33
2018-12-14T07:34:22.683Z,49.63
2018-12-14T07:35:26.726Z,47.40
2018-12-14T07:36:31.368Z,49.38
2018-12-14T07:37:35.445Z,49.38
2018-12-14T07:38:39.485Z,47.83
2018-12-14T07:39:43.554Z,53.13
2018-12-14T07:40:47.675Z,53.98
2018-12-14T07:41:51.797Z,48.98
2018-12-14T07:42:55.945Z,51.58
2018-12-14T07:43:59.957Z,52.15
2018-12-14T07:45:04.929Z,52.17
2018-12-14T07:46:08.986Z,52.85
2018-12-14T07:47:13.219Z,49.20
2018-12-14T07:48:17.260Z,58.13
2018-12-14T07:49:21.383Z,49.18
2018-12-14T07:50:25.492Z,49.25
2018-12-14T07:51:29.573Z,50.08
2018-12-14T07:52:34.759Z,47.33
2018-12-14T07:53:39.020Z,50.00
2018-12-14T07:54:43.165Z,50.17
2018-12-14T07:55:47.270Z,52.13
2018-12-14T07:56:51.479Z,51.10
2018-12-14T07:57:55.784Z,48.73
2018-12-14T07:59:00.072Z,52.38
2018-12-14T08:00:04.861Z,48.73
2018-12-14T08:01:08.944Z,46.77
2018-12-14T08:02:13.199Z,50.83
2018-12-14T08:03:17.513Z,48.60
2018-12-14T08:04:21.968Z,53.95
2018-12-14T08:05:26.136Z,47.20
2018-12-14T08:06:30.308Z,47.17
2018-12-14T08:07:34.361Z,49.88
2018-12-14T08:08:38.735Z,50.08
2018-12-14T08:09:42.841Z,44.03
2018-12-14T08:10:47.105Z,48.52
2018-12-14T08:11:51.159Z,50.73
2018-12-14T08:12:55.412Z,53.40
2018-12-14T08:13:59.567Z,45.90
2018-12-14T08:15:03.942Z,45.73
2018-12-14T08:16:08.151Z,45.10
2018-12-14T08:17:12.256Z,47.95
2018-12-14T08:18:16.339Z,51.63
2018-12-14T08:19:20.407Z,43.45
2018-12-14T08:20:24.574Z,46.92
2018-12-14T08:21:28.717Z,47.13
2018-12-14T08:22:32.829Z,47.78
2018-12-14T08:23:36.917Z,50.17
2018-12-14T08:24:41.003Z,46.15
2018-12-14T08:25:45.110Z,48.70
2018-12-14T08:26:49.392Z,45.17
2018-12-14T08:27:53.451Z,49.20
2018-12-14T08:28:57.599Z,50.15
2018-12-14T08:30:01.718Z,46.42
2018-12-14T08:31:06.089Z,47.88
2018-12-14T08:32:10.249Z,48.02
2018-12-14T08:33:14.547Z,50.63
2018-12-14T08:34:18.625Z,50.08
2018-12-14T08:35:22.666Z,42.62
2018-12-14T08:36:26.811Z,44.73
2018-12-14T08:37:30.910Z,46.25
2018-12-14T08:38:34.992Z,40.90
2018-12-14T08:39:38.994Z,43.83
2018-12-14T08:40:43.038Z,43.35
2018-12-14T08:41:47.164Z,41.77
2018-12-14T08:42:51.361Z,42.45
2018-12-14T08:43:55.494Z,43.38
2018-12-14T08:44:59.538Z,39.70
2018-12-14T08:46:03.852Z,42.20
2018-12-14T08:47:07.954Z,40.73
2018-12-14T08:48:12.192Z,38.70
2018-12-14T08:49:16.435Z,39.88
2018-12-14T08:50:20.648Z,40.33
2018-12-14T08:51:24.755Z,40.25
2018-12-14T08:52:28.912Z,40.10
2018-12-14T08:53:33.227Z,43.65
2018-12-14T08:54:38.345Z,42.58
2018-12-14T08:55:42.461Z,43.58
2018-12-14T08:56:46.522Z,43.40
2018-12-14T08:57:51.138Z,42.08
2018-12-14T08:58:55.245Z,38.88
2018-12-14T08:59:59.416Z,44.95
2018-12-14T09:01:03.488Z,43.90
2018-12-14T09:02:07.571Z,41.13
2018-12-14T09:03:11.599Z,41.30
2018-12-14T09:04:15.804Z,41.70
2018-12-14T09:05:19.893Z,45.10
2018-12-14T09:06:23.995Z,43.00
2018-12-14T09:07:28.200Z,42.93
2018-12-14T09:08:32.251Z,41.48
2018-12-14T09:09:36.411Z,44.40
2018-12-14T09:10:40.516Z,39.65
2018-12-14T09:11:44.603Z,44.13
2018-12-14T09:12:48.755Z,41.42
2018-12-14T09:13:52.915Z,39.90
2018-12-14T09:14:57.252Z,39.75
2018-12-14T09:16:01.318Z,46.88
2018-12-14T09:17:05.526Z,39.78
2018-12-14T09:18:09.585Z,41.65
2018-12-14T09:19:13.678Z,38.25
2018-12-14T09:20:24.510Z,40.90
2018-12-14T09:21:28.540Z,38.95
2018-12-14T09:22:32.605Z,42.73
2018-12-14T09:23:36.771Z,39.27
2018-12-14T09:24:40.816Z,38.25
2018-12-14T09:25:44.983Z,38.02
2018-12-14T09:26:49.029Z,37.20
2018-12-14T09:27:53.356Z,36.93
2018-12-14T09:28:57.656Z,38.28
2018-12-14T09:30:01.752Z,36.42
2018-12-14T09:31:06.891Z,32.65
2018-12-14T09:32:11.134Z,36.25
2018-12-14T09:33:15.313Z,36.28
2018-12-14T09:34:19.407Z,34.13
2018-12-14T09:35:23.455Z,35.30
2018-12-14T09:36:27.564Z,35.23
2018-12-14T09:37:31.763Z,33.47
2018-12-14T09:38:35.836Z,35.03
2018-12-14T09:39:40.089Z,31.62
2018-12-14T09:40:44.106Z,34.23
2018-12-14T09:41:48.234Z,31.33
2018-12-14T09:42:52.391Z,30.77
2018-12-14T09:43:57.546Z,31.43
2018-12-14T09:45:01.667Z,32.50
2018-12-14T09:46:05.905Z,32.00
2018-12-14T09:47:09.940Z,33.17
2018-12-14T09:48:14.022Z,35.13
2018-12-14T09:49:18.104Z,30.67
2018-12-14T09:50:22.123Z,31.23
2018-12-14T09:51:26.209Z,30.77
2018-12-14T09:52:30.332Z,26.73
2018-12-14T09:53:34.553Z,30.90
2018-12-14T09:54:38.766Z,30.17
2018-12-14T09:55:42.921Z,31.90
2018-12-14T09:56:47.085Z,30.17
2018-12-14T09:57:51.260Z,30.40
2018-12-14T09:58:55.322Z,32.87
2018-12-14T09:59:59.734Z,32.30
2018-12-14T10:01:04.016Z,31.57
2018-12-14T10:02:08.235Z,28.23
2018-12-14T10:03:12.311Z,31.50
2018-12-14T10:04:16.421Z,28.77
2018-12-14T10:05:20.596Z,31.25
2018-12-14T10:06:24.714Z,33.70
2018-12-14T10:07:28.797Z,28.83
2018-12-14T10:08:32.827Z,28.20
2018-12-14T10:09:36.898Z,31.20
2018-12-14T10:10:41.203Z,32.45
2018-12-14T10:11:45.239Z,31.10
2018-12-14T10:12:49.357Z,27.87
2018-12-14T10:13:53.448Z,28.42
2018-12-14T10:14:57.492Z,26.40
2018-12-14T10:16:01.757Z,27.47
2018-12-14T10:17:05.972Z,27.30
2018-12-14T10:18:10.115Z,26.50
2018-12-14T10:19:14.349Z,26.13
2018-12-14T10:20:18.466Z,28.37
2018-12-14T10:21:22.590Z,28.23
2018-12-14T10:22:26.655Z,26.20
2018-12-14T10:23:30.799Z,25.47
2018-12-14T10:24:34.946Z,26.10
2018-12-14T10:25:39.079Z,27.43
2018-12-14T10:26:43.494Z,27.90
2018-12-14T10:27:47.603Z,27.07
2018-12-14T10:28:52.013Z,27.05
2018-12-14T10:29:56.121Z,27.27
2018-12-14T10:31:00.431Z,27.60
2018-12-14T10:32:04.696Z,27.03
2018-12-14T10:33:10.090Z,26.47
2018-12-14T10:34:14.427Z,30.87
2018-12-14T10:35:20.233Z,26.63
2018-12-14T10:36:24.422Z,26.62
2018-12-14T10:37:28.866Z,27.57
2018-12-14T10:38:33.007Z,26.57
2018-12-14T10:39:37.235Z,26.85
2018-12-14T10:40:41.255Z,28.60
2018-12-14T10:41:45.308Z,27.58
2018-12-14T10:42:49.368Z,27.87
2018-12-14T10:43:53.515Z,25.57
2018-12-14T10:44:57.607Z,29.60
2018-12-14T10:46:01.851Z,25.13
2018-12-14T10:47:06.144Z,24.95
2018-12-14T10:48:10.445Z,26.65
2018-12-14T10:49:14.572Z,29.27
2018-12-14T10:50:18.892Z,27.45
2018-12-14T10:51:23.639Z,27.22
2018-12-14T10:52:39.971Z,30.12
2018-12-14T10:53:44.034Z,27.85
2018-12-14T10:54:48.160Z,26.33
2018-12-14T10:55:52.226Z,25.80
2018-12-14T10:56:56.203Z,26.73
2018-12-14T10:58:00.367Z,28.02
2018-12-14T10:59:04.717Z,27.43
2018-12-14T11:00:19.182Z,26.85
2018-12-14T11:01:28.493Z,28.50
2018-12-14T11:02:32.563Z,28.23
2018-12-14T11:03:37.402Z,28.15
2018-12-14T11:04:41.418Z,23.70
2018-12-14T11:05:45.470Z,26.33
2018-12-14T11:06:49.513Z,27.42
2018-12-14T11:07:53.517Z,28.10
2018-12-14T11:08:57.592Z,25.43
2018-12-14T11:10:01.625Z,26.55
2018-12-14T11:11:07.678Z,26.40
2018-12-14T11:12:11.696Z,28.47
2018-12-14T11:13:15.879Z,31.25
2018-12-14T11:14:19.969Z,29.35
2018-12-14T11:15:23.982Z,27.62
2018-12-14T11:16:28.063Z,29.30
2018-12-14T11:17:32.117Z,29.37
2018-12-14T11:18:36.207Z,28.32
2018-12-14T11:19:40.280Z,27.25
2018-12-14T11:20:44.387Z,29.82
2018-12-14T11:21:48.393Z,28.55
2018-12-14T11:22:52.460Z,26.15
2018-12-14T11:23:56.498Z,31.42
2018-12-14T11:25:00.509Z,26.55
2018-12-14T11:26:04.679Z,27.58
2018-12-14T11:27:08.716Z,28.83
2018-12-14T11:28:12.737Z,26.45
2018-12-14T11:29:16.897Z,31.70
2018-12-14T11:30:20.912Z,30.80
2018-12-14T11:31:24.968Z,28.75
2018-12-14T11:32:29.007Z,27.15
2018-12-14T11:33:34.516Z,30.92
2018-12-14T11:34:38.754Z,27.27
2018-12-14T11:35:42.810Z,29.48
2018-12-14T11:36:46.873Z,28.73
2018-12-14T11:37:50.946Z,26.10
2018-12-14T11:38:54.987Z,29.05
2018-12-14T11:39:59.049Z,32.65
2018-12-14T11:41:03.082Z,28.87
2018-12-14T11:42:07.123Z,31.40
2018-12-14T11:43:11.413Z,28.45
2018-12-14T11:44:20.614Z,28.38
2018-12-14T11:45:21.530Z,27.17
2018-12-14T11:46:25.644Z,27.90
2018-12-14T11:47:29.633Z,27.30
2018-12-14T11:48:33.724Z,29.65
2018-12-14T11:49:37.727Z,30.35
2018-12-14T11:50:41.763Z,29.72
2018-12-14T11:51:45.779Z,29.67
2018-12-14T11:52:49.818Z,27.00
2018-12-14T11:53:53.885Z,26.45
2018-12-14T11:54:58.019Z,28.83
2018-12-14T11:56:02.055Z,24.85
2018-12-14T11:57:06.087Z,29.75
2018-12-14T11:58:10.241Z,26.17
2018-12-14T11:59:14.325Z,28.30
2018-12-14T12:00:18.546Z,27.93
2018-12-14T12:01:22.574Z,30.57
2018-12-14T12:02:26.607Z,26.97
2018-12-14T12:03:30.615Z,29.40
2018-12-14T12:04:34.662Z,27.82
2018-12-14T12:05:38.897Z,29.82
2018-12-14T12:06:44.029Z,28.17
2018-12-14T12:07:48.250Z,28.73
2018-12-14T12:08:52.303Z,26.02
2018-12-14T12:09:56.387Z,29.18
2018-12-14T12:11:00.447Z,27.87
2018-12-14T12:12:05.339Z,28.47
2018-12-14T12:13:09.357Z,28.70
2018-12-14T12:14:13.398Z,31.10
2018-12-14T12:15:17.646Z,26.57
2018-12-14T12:16:21.816Z,27.75
2018-12-14T12:17:25.889Z,28.17
2018-12-14T12:18:29.895Z,25.55
2018-12-14T12:19:33.951Z,29.00
2018-12-14T12:20:38.001Z,30.45
2018-12-14T12:21:42.129Z,27.40
2018-12-14T12:22:46.189Z,26.97
2018-12-14T12:23:55.307Z,29.07
2018-12-14T12:24:57.179Z,27.42
2018-12-14T12:26:01.224Z,28.57
2018-12-14T12:27:05.463Z,27.45
2018-12-14T12:28:09.487Z,29.20
2018-12-14T12:29:15.021Z,29.95
2018-12-14T12:30:19.121Z,26.70
2018-12-14T12:31:23.189Z,28.83
2018-12-14T12:32:27.333Z,26.80
2018-12-14T12:33:32.516Z,29.95
2018-12-14T12:34:36.629Z,27.32
2018-12-14T12:35:40.685Z,28.07
2018-12-14T12:36:44.683Z,28.87
2018-12-14T12:37:48.710Z,25.82
2018-12-14T12:38:52.748Z,31.00
2018-12-14T12:39:56.951Z,27.20
2018-12-14T12:41:00.971Z,27.77
2018-12-14T12:42:05.012Z,29.70
2018-12-14T12:43:09.054Z,25.57
2018-12-14T12:45:31.565Z,30.05
2018-12-14T12:46:37.359Z,28.32
2018-12-14T12:47:41.551Z,25.62
2018-12-14T12:48:45.721Z,27.52
2018-12-14T12:49:49.858Z,28.07
2018-12-14T12:50:53.893Z,26.02
2018-12-14T12:51:58.034Z,26.93
2018-12-14T12:53:02.477Z,27.55
2018-12-14T12:54:06.518Z,28.10
2018-12-14T12:55:10.731Z,29.57
2018-12-14T12:56:14.926Z,27.07
2018-12-14T12:57:19.030Z,26.75
2018-12-14T12:58:23.049Z,31.30
2018-12-14T12:59:27.338Z,27.35
2018-12-14T13:00:33.575Z,28.38
2018-12-14T13:01:38.072Z,26.10
2018-12-14T13:02:42.248Z,32.23
2018-12-14T13:03:46.405Z,25.57
2018-12-14T13:04:50.686Z,30.57
2018-12-14T13:05:54.737Z,28.70
2018-12-14T13:06:58.944Z,31.35
2018-12-14T13:08:03.099Z,29.20
2018-12-14T13:09:07.613Z,26.80
2018-12-14T13:10:14.014Z,24.30
2018-12-14T13:11:18.120Z,27.65
2018-12-14T13:12:22.175Z,29.57
2018-12-14T13:13:26.244Z,27.05
2018-12-14T13:14:30.265Z,27.42
2018-12-14T13:15:34.385Z,29.98
2018-12-14T13:16:38.438Z,30.23
2018-12-14T13:17:42.486Z,25.88
2018-12-14T13:18:46.615Z,30.32
2018-12-14T13:19:50.692Z,27.13
2018-12-14T13:20:54.837Z,32.30
2018-12-14T13:21:59.235Z,31.20
2018-12-14T13:23:03.339Z,30.05
2018-12-14T13:24:07.366Z,29.80
2018-12-14T13:25:11.517Z,26.73
2018-12-14T13:26:15.547Z,28.30
2018-12-14T13:27:20.496Z,26.62
2018-12-14T13:28:24.885Z,26.77
2018-12-14T13:29:28.933Z,30.00
2018-12-14T13:30:33.021Z,27.70
2018-12-14T13:31:37.034Z,27.22
2018-12-14T13:32:41.071Z,27.45
2018-12-14T13:33:45.971Z,28.20
2018-12-14T13:34:50.116Z,30.12
2018-12-14T13:35:55.434Z,28.05
2018-12-14T13:36:59.479Z,29.20
2018-12-14T13:38:03.523Z,25.95
2018-12-14T13:39:07.777Z,29.40
2018-12-14T13:40:14.294Z,28.35
2018-12-14T13:41:18.367Z,26.52
2018-12-14T13:42:22.535Z,28.20
2018-12-14T13:43:26.643Z,30.35
2018-12-14T13:44:31.579Z,29.98
2018-12-14T13:45:35.630Z,24.85
2018-12-14T13:46:39.662Z,27.35
2018-12-14T13:47:44.133Z,28.65
2018-12-14T13:48:48.295Z,30.20
2018-12-14T13:49:52.386Z,26.70